This is the latest recevied weather packets stored in our database for station/object KF5JED-13. If no packets are shown the sender has not sent any weather packets the latest 1 day(s).
| Time | Temp. | Humidity | Pressure | Rain* | Wind** | Luminosity | Snow |
|---|---|---|---|---|---|---|---|
| 1777980166 | 13.33° C | 58% | 1007.1 hPa | 0 mm | 4.92 m/s, 343° | 0 W/m² | - |
| 1777979861 | 13.33° C | 58% | 1007 hPa | 0 mm | 8.49 m/s, 3° | 0 W/m² | - |
| 1777979557 | 13.33° C | 58% | 1007 hPa | 0 mm | 5.36 m/s, 8° | 0 W/m² | - |
| 1777979253 | 13.89° C | 58% | 1006.8 hPa | 0 mm | 4.92 m/s, 0° | 0 W/m² | - |
| 1777978951 | 13.89° C | 58% | 1006.7 hPa | 0 mm | 5.36 m/s, 352° | 0 W/m² | - |
| 1777978647 | 13.89° C | 58% | 1006.6 hPa | 0 mm | 4.92 m/s, 0° | 0 W/m² | - |
| 1777978343 | 14.44° C | 57% | 1006.7 hPa | 0 mm | 4.92 m/s, 11° | 0 W/m² | - |
| 1777978040 | 14.44° C | 57% | 1006.6 hPa | 0 mm | 5.81 m/s, 0° | 0 W/m² | - |
| 1777977737 | 14.44° C | 56% | 1006.3 hPa | 0 mm | 7.6 m/s, 4° | 0 W/m² | - |
| 1777977433 | 15° C | 55% | 1006.2 hPa | 0 mm | 5.81 m/s, 357° | 0 W/m² | - |
| 1777977131 | 15° C | 54% | 1006.4 hPa | 0 mm | 7.15 m/s, 2° | 0 W/m² | - |
| 1777976828 | 15° C | 52% | 1006.2 hPa | 0 mm | 5.36 m/s, 356° | 0 W/m² | - |
| 1777976526 | 15.56° C | 48% | 1006.2 hPa | 0 mm | 5.81 m/s, 329° | 0 W/m² | - |
| 1777976225 | 16.11° C | 44% | 1005.8 hPa | 0 mm | 6.71 m/s, 334° | 0 W/m² | - |
| 1777975921 | 16.67° C | 41% | 1005.8 hPa | 0 mm | 8.05 m/s, 350° | 0 W/m² | - |
| 1777975617 | 17.22° C | 37% | 1005.6 hPa | 0 mm | 8.49 m/s, 328° | 0 W/m² | - |
| 1777975314 | 17.78° C | 34% | 1005.7 hPa | 0 mm | 5.81 m/s, 315° | 0 W/m² | - |
| 1777975010 | 18.33° C | 30% | 1005.6 hPa | 0 mm | 7.6 m/s, 335° | 0 W/m² | - |
| 1777974708 | 18.89° C | 29% | 1005.3 hPa | 0 mm | 4.92 m/s, 318° | 0 W/m² | - |
| 1777974403 | 18.33° C | 29% | 1005.2 hPa | 0 mm | 3.58 m/s, 330° | 0 W/m² | - |
| 1777974100 | 17.78° C | 31% | 1005 hPa | 0 mm | 2.68 m/s, 284° | 0 W/m² | - |
| 1777973796 | 17.78° C | 31% | 1004.8 hPa | 0 mm | 2.24 m/s, 275° | 0 W/m² | - |
| 1777973494 | 17.78° C | 31% | 1004.9 hPa | 0 mm | 1.79 m/s, 287° | 0 W/m² | - |
| 1777973191 | 17.78° C | 31% | 1005.2 hPa | 0 mm | 3.58 m/s, 305° | 0 W/m² | - |
| 1777972890 | 18.33° C | 30% | 1004.9 hPa | 0 mm | 3.58 m/s, 305° | 0 W/m² | - |
* Rain latest hour (hover to see other rain measurements)
** Current wind speed in m/s (hover to see current wind gust speed)